Time;durP1;ratioP1;P1;durP2;ratioP2;P2;SDS_P1;SDS_P2;PMS_P1;PMS_P2;Temp;Humidity;BMP_temperature;BMP_pressure;BME280_temperature;BME280_humidity;BME280_pressure;Samples;Min_cycle;Max_cycle;Signal;HPM_P1;HPM_P2
2022/05/21 00:00:21;;;;;;;18.80;17.97;;;19.20;59.50;;;;;;4989178;28;20430;-80
2022/05/21 00:02:48;;;;;;;18.23;17.47;;;19.20;60.00;;;;;;4973421;28;20425;-79
2022/05/21 00:05:15;;;;;;;19.63;18.47;;;19.10;59.00;;;;;;4988287;28;20419;-80
2022/05/21 00:07:42;;;;;;;18.50;17.50;;;19.10;58.30;;;;;;4988372;28;20449;-80
2022/05/21 00:10:09;;;;;;;19.60;18.60;;;19.20;58.20;;;;;;4988183;28;20513;-80
2022/05/21 00:12:34;;;;;;;19.40;18.40;;;19.10;59.20;;;;;;4988690;28;20411;-80
2022/05/21 00:15:00;;;;;;;19.03;18.33;;;19.20;57.30;;;;;;4973021;28;20433;-80
2022/05/21 00:17:26;;;;;;;19.10;18.20;;;19.10;57.70;;;;;;4988117;28;20206;-80
2022/05/21 00:19:51;;;;;;;18.60;17.70;;;19.00;58.40;;;;;;4988234;28;20194;-80
2022/05/21 00:22:17;;;;;;;18.93;18.13;;;19.00;58.20;;;;;;4986852;28;20183;-80
2022/05/21 00:24:43;;;;;;;19.30;18.50;;;19.00;57.90;;;;;;4987585;28;20184;-80
2022/05/21 00:27:10;;;;;;;19.90;19.00;;;19.00;57.30;;;;;;4988191;28;20252;-80
2022/05/21 00:29:35;;;;;;;19.83;18.93;;;19.10;55.50;;;;;;4987158;28;20469;-80
2022/05/21 00:32:02;;;;;;;20.00;19.20;;;18.90;56.10;;;;;;4987806;28;20425;-80
2022/05/21 00:34:28;;;;;;;20.70;19.77;;;19.00;55.40;;;;;;4988518;28;20183;-80
2022/05/21 00:36:54;;;;;;;20.23;19.10;;;19.00;54.50;;;;;;4989278;28;20422;-80
2022/05/21 00:39:20;;;;;;;20.63;19.63;;;19.00;54.50;;;;;;4988808;28;20635;-80
2022/05/21 00:41:45;;;;;;;20.47;19.67;;;18.90;54.30;;;;;;4986799;28;20552;-80
2022/05/21 00:44:11;;;;;;;20.70;19.70;;;18.90;53.10;;;;;;4987656;28;20198;-80
2022/05/21 00:46:43;;;;;;;21.60;20.17;;;18.80;54.20;;;;;;4988126;28;20186;-80
2022/05/21 00:49:19;;;;;;;20.90;20.10;;;18.80;53.80;;;;;;4987610;28;20207;-80
2022/05/21 00:51:45;;;;;;;21.00;20.10;;;18.70;54.50;;;;;;4987793;28;20452;-80
2022/05/21 00:54:13;;;;;;;20.63;19.70;;;18.70;54.10;;;;;;4971478;28;20414;-80
2022/05/21 00:56:49;;;;;;;20.33;19.40;;;18.70;54.20;;;;;;4987178;28;20186;-80
2022/05/21 01:02:05;;;;;;;21.03;20.13;;;18.70;54.30;;;;;;4971609;28;20417;-80
2022/05/21 01:04:33;;;;;;;21.37;20.47;;;18.60;53.20;;;;;;4972044;28;20788;-80
2022/05/21 01:07:01;;;;;;;20.17;19.40;;;18.60;53.20;;;;;;4972099;28;20484;-80
2022/05/21 01:09:26;;;;;;;20.73;19.93;;;18.50;53.50;;;;;;4988403;28;20466;-80
2022/05/21 01:11:53;;;;;;;20.47;19.60;;;18.50;53.80;;;;;;4988351;28;20576;-80
2022/05/21 01:14:22;;;;;;;19.90;19.00;;;18.40;53.80;;;;;;4987131;28;20189;-80
2022/05/21 01:16:49;;;;;;;20.90;19.70;;;18.30;54.20;;;;;;4987615;28;20425;-80
2022/05/21 01:19:15;;;;;;;19.90;19.10;;;18.30;53.60;;;;;;4985824;28;20794;-80
2022/05/21 01:21:41;;;;;;;19.03;18.30;;;18.30;54.30;;;;;;4987496;28;20425;-80
2022/05/21 01:24:09;;;;;;;18.90;18.20;;;18.20;54.30;;;;;;4986001;28;20640;-80
2022/05/21 01:26:35;;;;;;;20.20;19.30;;;18.20;54.70;;;;;;4986633;28;21049;-81
2022/05/21 01:29:15;;;;;;;20.63;19.83;;;18.20;53.40;;;;;;4986417;28;20469;-80
2022/05/21 01:31:51;;;;;;;20.27;19.40;;;18.30;51.40;;;;;;4987459;28;20418;-80
2022/05/21 01:34:17;;;;;;;20.40;19.40;;;18.30;51.90;;;;;;4985855;28;20417;-80
2022/05/21 01:36:43;;;;;;;21.03;20.00;;;18.10;52.30;;;;;;4986862;28;20453;-80
2022/05/21 01:39:09;;;;;;;20.73;19.83;;;18.10;50.80;;;;;;4985607;28;20465;-80
2022/05/21 01:41:34;;;;;;;19.83;19.13;;;18.10;50.20;;;;;;4990000;28;20614;-80
2022/05/21 01:46:44;;;;;;;20.47;19.67;;;18.00;50.00;;;;;;4973686;28;20249;-80
2022/05/21 01:49:10;;;;;;;21.40;20.50;;;18.00;50.20;;;;;;4989881;28;20461;-80
2022/05/21 01:51:36;;;;;;;21.83;20.53;;;18.00;50.30;;;;;;4990531;28;20583;-80
2022/05/21 01:54:02;;;;;;;21.00;20.10;;;18.00;49.60;;;;;;4987529;28;20217;-80
2022/05/21 01:56:27;;;;;;;20.67;19.60;;;17.90;50.40;;;;;;4987175;28;20482;-80
2022/05/21 01:58:53;;;;;;;20.83;20.03;;;17.90;49.80;;;;;;4988882;28;20593;-80
2022/05/21 02:01:20;;;;;;;21.10;20.20;;;17.80;50.30;;;;;;4989061;28;20282;-80
2022/05/21 02:03:45;;;;;;;21.00;19.97;;;17.80;50.20;;;;;;4989504;28;20192;-81
2022/05/21 02:06:11;;;;;;;20.67;19.73;;;17.80;50.30;;;;;;4988162;28;20934;-80
2022/05/21 02:08:37;;;;;;;20.30;19.50;;;17.80;50.80;;;;;;4989216;28;20674;-80
2022/05/21 02:11:04;;;;;;;20.80;19.90;;;17.70;51.20;;;;;;4988975;28;20178;-80
2022/05/21 02:13:31;;;;;;;20.13;19.33;;;17.60;51.40;;;;;;4988382;28;20233;-80
2022/05/21 02:15:57;;;;;;;20.83;20.03;;;17.60;50.70;;;;;;4973977;28;20501;-80
2022/05/21 02:18:24;;;;;;;21.00;20.20;;;17.60;49.10;;;;;;4988142;28;20422;-79
2022/05/21 02:20:51;;;;;;;21.00;20.17;;;17.60;49.30;;;;;;4986381;28;20426;-79
2022/05/21 02:23:17;;;;;;;20.70;20.00;;;17.40;50.40;;;;;;4988752;28;20801;-79
2022/05/21 02:25:43;;;;;;;21.60;20.80;;;17.30;50.60;;;;;;4987500;28;20521;-79
2022/05/21 02:28:09;;;;;;;21.43;20.53;;;17.30;51.80;;;;;;4986652;28;20187;-80
2022/05/21 02:30:36;;;;;;;20.50;19.60;;;17.30;51.10;;;;;;4985430;28;20421;-79
2022/05/21 02:33:01;;;;;;;20.10;19.30;;;17.30;51.70;;;;;;4986785;28;20804;-79
2022/05/21 02:35:27;;;;;;;20.57;19.57;;;17.20;51.40;;;;;;4986514;28;20422;-80
2022/05/21 02:40:36;;;;;;;20.73;19.90;;;17.30;49.60;;;;;;4970762;28;20217;-80
2022/05/21 02:43:02;;;;;;;20.20;19.40;;;17.20;50.60;;;;;;4986482;28;20807;-80
2022/05/21 02:45:29;;;;;;;20.40;19.60;;;17.20;50.60;;;;;;4985593;28;20186;-79
2022/05/21 02:47:55;;;;;;;20.50;19.60;;;17.00;51.90;;;;;;4986359;28;20197;-79
2022/05/21 02:50:28;;;;;;;20.60;19.60;;;16.80;53.60;;;;;;4987319;28;20470;-80
2022/05/21 02:52:54;;;;;;;20.13;19.17;;;16.80;52.50;;;;;;4987173;28;20427;-80
2022/05/21 02:55:19;;;;;;;21.20;20.03;;;16.80;52.70;;;;;;4987908;28;20553;-80
2022/05/21 02:57:45;;;;;;;20.40;19.50;;;16.80;52.90;;;;;;4987465;28;20896;-80
2022/05/21 03:00:14;;;;;;;20.13;19.33;;;16.70;52.50;;;;;;4987061;28;20190;-80
2022/05/21 03:02:40;;;;;;;20.37;19.47;;;16.60;53.10;;;;;;4988489;28;20190;-80
2022/05/21 03:05:07;;;;;;;21.10;20.10;;;16.40;53.30;;;;;;4986815;28;20430;-80
2022/05/21 03:07:44;;;;;;;19.00;18.20;;;16.50;52.60;;;;;;4987416;28;20190;-80
2022/05/21 03:10:21;;;;;;;20.10;19.10;;;16.40;54.80;;;;;;4986682;28;20472;-80
2022/05/21 03:13:06;;;;;;;20.07;19.17;;;16.40;53.60;;;;;;4985724;28;20422;-80
2022/05/21 03:15:37;;;;;;;20.63;19.53;;;16.40;54.70;;;;;;4987233;28;20410;-80
2022/05/21 03:18:15;;;;;;;20.53;19.60;;;16.30;54.60;;;;;;4971769;28;20933;-80
2022/05/21 03:20:41;;;;;;;20.90;19.90;;;16.20;54.70;;;;;;4971313;28;20537;-80
2022/05/21 03:23:09;;;;;;;20.87;19.87;;;16.20;54.80;;;;;;4985145;28;20425;-80
2022/05/21 03:25:35;;;;;;;20.07;19.27;;;16.20;54.10;;;;;;4984118;28;20429;-80
2022/05/21 03:28:01;;;;;;;21.00;19.90;;;16.10;54.50;;;;;;4986061;28;20505;-80
2022/05/21 03:30:29;;;;;;;19.80;19.00;;;16.10;54.30;;;;;;4985864;28;20418;-80
2022/05/21 03:32:55;;;;;;;20.37;19.47;;;16.00;54.40;;;;;;4984871;28;20414;-79
2022/05/21 03:35:22;;;;;;;20.30;19.30;;;15.90;54.50;;;;;;4984563;28;20422;-80
2022/05/21 03:37:49;;;;;;;19.80;18.90;;;15.90;55.50;;;;;;4984720;28;20429;-80
2022/05/21 03:40:18;;;;;;;19.87;19.07;;;15.90;54.90;;;;;;4985227;28;20422;-80
2022/05/21 03:42:45;;;;;;;19.77;18.97;;;16.00;53.70;;;;;;4986426;28;20522;-80
2022/05/21 03:45:12;;;;;;;20.10;19.13;;;16.00;53.90;;;;;;4985324;28;20926;-80
2022/05/21 03:47:45;;;;;;;19.03;18.23;;;15.90;55.30;;;;;;4986580;28;20857;-81
2022/05/21 03:50:26;;;;;;;19.67;18.77;;;15.90;54.30;;;;;;4985441;28;20557;-83
2022/05/21 03:52:51;;;;;;;19.77;18.83;;;15.90;53.90;;;;;;4984913;28;20499;-82
2022/05/21 03:55:22;;;;;;;19.63;18.83;;;15.80;53.90;;;;;;4985754;28;20967;-80
2022/05/21 03:57:50;;;;;;;20.37;19.40;;;15.70;54.70;;;;;;4969059;28;20274;-82
2022/05/21 04:00:18;;;;;;;19.43;18.63;;;15.70;54.50;;;;;;4983182;28;20430;-82
2022/05/21 04:02:44;;;;;;;19.80;18.80;;;15.60;55.10;;;;;;4982750;28;20428;-82
2022/05/21 04:05:11;;;;;;;20.67;19.80;;;15.60;55.70;;;;;;4982428;28;20870;-81
2022/05/21 04:07:37;;;;;;;20.23;19.40;;;15.50;55.60;;;;;;4969121;28;20248;-81
2022/05/21 04:10:04;;;;;;;20.63;19.63;;;15.50;55.60;;;;;;4984505;28;20569;-82
2022/05/21 04:12:29;;;;;;;20.10;19.20;;;15.50;54.00;;;;;;4983517;28;20429;-82
2022/05/21 04:14:56;;;;;;;20.43;19.53;;;15.50;55.40;;;;;;4982992;28;20422;-82
2022/05/21 04:17:21;;;;;;;20.30;19.40;;;15.50;55.00;;;;;;4981977;28;20633;-82
2022/05/21 04:19:47;;;;;;;19.13;18.33;;;15.50;55.00;;;;;;4983841;28;21414;-82
2022/05/21 04:22:13;;;;;;;19.53;18.57;;;15.60;54.30;;;;;;4981188;28;20265;-82
2022/05/21 04:24:38;;;;;;;19.53;18.73;;;15.60;54.50;;;;;;4982092;28;20589;-82
2022/05/21 04:27:06;;;;;;;19.67;18.87;;;15.60;54.30;;;;;;4983405;28;20568;-83
2022/05/21 04:29:31;;;;;;;19.93;19.10;;;15.60;54.20;;;;;;4981045;28;20265;-84
2022/05/21 04:31:57;;;;;;;20.70;19.80;;;15.60;53.00;;;;;;4988751;28;20906;-83
2022/05/21 04:34:23;;;;;;;20.40;19.60;;;15.60;53.40;;;;;;4988414;28;20178;-83
2022/05/21 04:36:49;;;;;;;20.83;19.57;;;15.50;53.90;;;;;;5000669;28;20261;-83
2022/05/21 04:39:14;;;;;;;20.27;19.47;;;15.60;53.80;;;;;;4995927;28;20281;-83
2022/05/21 04:41:40;;;;;;;21.10;20.20;;;15.60;53.80;;;;;;4995901;28;20905;-82
2022/05/21 04:44:07;;;;;;;21.80;20.80;;;15.50;52.10;;;;;;4998836;28;20192;-81
2022/05/21 04:46:35;;;;;;;21.53;20.63;;;15.60;52.10;;;;;;5000127;28;20209;-83
2022/05/21 04:49:01;;;;;;;20.70;19.90;;;15.60;51.40;;;;;;5002470;28;21056;-82
2022/05/21 04:51:27;;;;;;;20.37;19.40;;;15.60;50.30;;;;;;4998877;28;20413;-82
2022/05/21 04:53:53;;;;;;;21.70;20.70;;;15.60;51.70;;;;;;4999913;28;20840;-83
2022/05/21 04:56:18;;;;;;;21.60;20.70;;;15.60;50.30;;;;;;4999382;28;20178;-82
2022/05/21 04:58:45;;;;;;;20.80;20.00;;;15.70;50.70;;;;;;4999765;28;20474;-83
2022/05/21 05:01:11;;;;;;;22.03;21.13;;;15.70;50.80;;;;;;4977594;28;20193;-83
2022/05/21 05:03:36;;;;;;;22.23;21.30;;;15.70;49.60;;;;;;4980054;28;20422;-83
2022/05/21 05:06:03;;;;;;;21.93;20.93;;;15.70;48.90;;;;;;4962484;28;20269;-83
2022/05/21 05:08:29;;;;;;;21.40;20.50;;;15.70;49.80;;;;;;4980485;28;20261;-85
2022/05/21 05:10:55;;;;;;;23.10;22.17;;;15.80;50.30;;;;;;4979478;28;20453;-82
2022/05/21 05:13:21;;;;;;;22.70;21.80;;;15.70;48.00;;;;;;4979275;28;20465;-87
2022/05/21 05:15:47;;;;;;;22.57;21.67;;;15.70;49.40;;;;;;4980018;28;20492;-88
2022/05/21 05:18:19;;;;;;;23.17;22.20;;;15.80;48.70;;;;;;4968851;28;20496;-86
2022/05/21 05:20:46;;;;;;;21.27;20.40;;;15.80;48.50;;;;;;4982949;28;20237;-81
2022/05/21 05:23:12;;;;;;;19.83;19.03;;;15.90;48.00;;;;;;4983994;28;20444;-81
2022/05/21 05:25:38;;;;;;;21.97;20.97;;;15.80;47.30;;;;;;4983535;28;21098;-81
2022/05/21 05:28:06;;;;;;;21.87;20.87;;;15.90;46.80;;;;;;4983119;28;20557;-80
2022/05/21 05:30:31;;;;;;;22.13;21.23;;;16.00;46.90;;;;;;4982296;28;21018;-81
2022/05/21 05:32:57;;;;;;;21.63;20.73;;;16.10;46.10;;;;;;4997054;28;20764;-81
2022/05/21 05:35:23;;;;;;;22.03;21.00;;;16.00;46.20;;;;;;4987235;28;20262;-80
2022/05/21 05:37:49;;;;;;;21.00;20.20;;;16.10;44.90;;;;;;5002581;28;20174;-80
2022/05/21 05:40:19;;;;;;;23.27;22.17;;;16.20;44.70;;;;;;5002890;28;20413;-80
2022/05/21 05:42:44;;;;;;;22.17;20.90;;;16.20;43.50;;;;;;5001217;28;20819;-80
2022/05/21 05:45:13;;;;;;;21.77;20.87;;;16.20;44.80;;;;;;4998768;28;20495;-80
2022/05/21 05:47:38;;;;;;;21.90;21.00;;;16.30;44.50;;;;;;5002004;28;20650;-80
2022/05/21 05:50:04;;;;;;;22.10;21.10;;;16.30;43.30;;;;;;5003402;28;20460;-80
2022/05/21 05:52:30;;;;;;;21.40;20.60;;;16.30;43.10;;;;;;5001911;28;20585;-80
2022/05/21 05:54:56;;;;;;;21.67;20.77;;;16.30;42.10;;;;;;5000934;28;20475;-81
2022/05/21 05:57:23;;;;;;;21.37;20.37;;;16.50;42.60;;;;;;5000982;28;20232;-80
2022/05/21 05:59:49;;;;;;;20.80;19.80;;;16.50;41.70;;;;;;5001919;28;20226;-80
2022/05/21 06:05:14;;;;;;;21.10;20.20;;;16.50;39.70;;;;;;4986206;28;20412;-81
2022/05/21 06:07:44;;;;;;;22.17;21.30;;;16.50;41.10;;;;;;5001608;28;20482;-82
2022/05/21 06:10:12;;;;;;;21.97;20.97;;;16.60;39.10;;;;;;5000621;28;20475;-82
2022/05/21 06:12:38;;;;;;;22.50;21.40;;;16.60;39.10;;;;;;5000811;28;20852;-81
2022/05/21 06:15:04;;;;;;;22.20;21.30;;;16.70;39.60;;;;;;5003753;28;20531;-81
2022/05/21 06:17:30;;;;;;;22.23;21.33;;;16.70;38.00;;;;;;5001572;28;20182;-82
2022/05/21 06:19:55;;;;;;;21.93;21.03;;;16.80;37.50;;;;;;5001885;28;20418;-82
2022/05/21 06:22:21;;;;;;;21.50;20.70;;;16.70;39.40;;;;;;4982044;28;20175;-84
2022/05/21 06:24:47;;;;;;;21.00;20.20;;;16.70;39.10;;;;;;4995195;28;20705;-84
2022/05/21 06:27:13;;;;;;;20.33;19.60;;;16.90;36.80;;;;;;4987155;28;20193;-84
2022/05/21 06:29:38;;;;;;;21.57;20.23;;;17.00;37.50;;;;;;4992295;28;20483;-84
2022/05/21 06:32:08;;;;;;;20.30;19.50;;;17.00;37.70;;;;;;4988972;28;20179;-84
2022/05/21 06:34:36;;;;;;;20.70;20.00;;;17.00;37.70;;;;;;4991954;28;20179;-84
2022/05/21 06:37:08;;;;;;;21.87;20.83;;;17.00;37.30;;;;;;4994525;28;20520;-85
2022/05/21 06:39:35;;;;;;;22.50;21.70;;;17.10;37.70;;;;;;4974195;28;20420;-84
2022/05/21 06:42:02;;;;;;;21.83;20.93;;;17.10;37.30;;;;;;4991524;28;20789;-83
2022/05/21 06:44:28;;;;;;;22.00;21.00;;;17.10;36.70;;;;;;4987598;28;20811;-83
2022/05/21 06:46:54;;;;;;;21.10;20.30;;;17.10;35.90;;;;;;4991266;28;20512;-83
2022/05/21 06:49:21;;;;;;;21.47;20.67;;;17.20;36.10;;;;;;4991106;28;20468;-82
2022/05/21 06:51:47;;;;;;;21.40;20.50;;;17.30;34.90;;;;;;4994392;28;20657;-82
2022/05/21 06:54:13;;;;;;;19.20;18.40;;;17.30;33.80;;;;;;4989095;28;20469;-83
2022/05/21 06:56:40;;;;;;;21.20;20.30;;;17.30;35.30;;;;;;4987440;28;20418;-83
2022/05/21 06:59:06;;;;;;;20.90;20.10;;;17.40;35.80;;;;;;4983033;28;20476;-84
2022/05/21 07:01:32;;;;;;;20.80;20.10;;;17.40;36.30;;;;;;4981243;28;20422;-84
2022/05/21 07:03:58;;;;;;;20.43;19.63;;;17.40;33.00;;;;;;4981360;28;20175;-84
2022/05/21 07:09:08;;;;;;;19.30;18.53;;;17.40;32.20;;;;;;4982119;28;20762;-83
2022/05/21 07:11:33;;;;;;;20.10;19.30;;;17.50;34.00;;;;;;5001812;28;20512;-84
2022/05/21 07:13:59;;;;;;;20.30;19.60;;;17.50;34.70;;;;;;5001205;28;20174;-84
2022/05/21 07:16:25;;;;;;;20.50;19.70;;;17.70;34.50;;;;;;5002963;28;20177;-84
2022/05/21 07:18:51;;;;;;;21.03;19.97;;;17.80;34.80;;;;;;5003280;28;20424;-83
2022/05/21 07:21:18;;;;;;;21.67;20.67;;;17.80;35.50;;;;;;5004485;28;20189;-83
2022/05/21 07:23:45;;;;;;;19.97;19.27;;;17.80;36.40;;;;;;5004790;28;20244;-83
2022/05/21 07:26:11;;;;;;;21.43;20.63;;;17.90;33.20;;;;;;5004272;28;20506;-83
2022/05/21 07:28:37;;;;;;;20.43;19.63;;;17.90;33.60;;;;;;5003616;28;20536;-83
2022/05/21 07:31:04;;;;;;;19.80;19.00;;;17.80;35.10;;;;;;5002389;28;20998;-82
2022/05/21 07:33:29;;;;;;;19.23;18.50;;;18.00;33.90;;;;;;5002957;28;20417;-84
2022/05/21 07:35:55;;;;;;;19.93;19.23;;;18.00;31.80;;;;;;4987901;28;20416;-83
2022/05/21 07:38:20;;;;;;;20.80;19.80;;;18.00;32.20;;;;;;5004164;28;20609;-83
2022/05/21 07:40:47;;;;;;;19.97;19.27;;;18.00;32.00;;;;;;5003199;28;20178;-83
2022/05/21 07:43:17;;;;;;;19.33;18.70;;;18.10;31.30;;;;;;5008275;28;20588;-85
2022/05/21 07:45:44;;;;;;;20.60;19.63;;;18.10;30.60;;;;;;4988472;28;20414;-85
2022/05/21 07:48:12;;;;;;;19.47;18.47;;;18.10;29.80;;;;;;5004490;28;20421;-85
2022/05/21 07:50:40;;;;;;;18.23;17.63;;;18.10;29.70;;;;;;5006043;28;20468;-84
2022/05/21 07:53:18;;;;;;;19.27;18.57;;;18.10;29.30;;;;;;5000954;28;20421;-86
2022/05/21 07:55:46;;;;;;;20.10;19.30;;;18.00;30.00;;;;;;4983225;28;20425;-86
2022/05/21 07:58:12;;;;;;;18.70;18.00;;;18.10;30.00;;;;;;4997361;28;20417;-86
2022/05/21 08:00:38;;;;;;;19.13;18.50;;;18.10;28.70;;;;;;4993167;28;20426;-86
2022/05/21 08:03:04;;;;;;;19.40;18.53;;;18.00;28.60;;;;;;4997105;28;20409;-85
2022/05/21 08:05:30;;;;;;;19.60;18.90;;;18.10;29.30;;;;;;4992208;28;20429;-85
2022/05/21 08:07:56;;;;;;;19.70;18.90;;;18.20;29.30;;;;;;5004480;28;20413;-85
2022/05/21 08:10:22;;;;;;;19.90;19.00;;;18.20;28.90;;;;;;5005358;28;20206;-85
2022/05/21 08:12:51;;;;;;;23.10;21.63;;;18.20;29.70;;;;;;5007922;28;21004;-85
2022/05/21 08:15:18;;;;;;;19.00;18.40;;;18.20;29.40;;;;;;4991809;28;20561;-85
2022/05/21 08:17:44;;;;;;;18.57;17.80;;;18.10;28.70;;;;;;4990571;28;20781;-85
2022/05/21 08:20:11;;;;;;;18.90;18.20;;;18.20;29.30;;;;;;4991838;28;20436;-85
2022/05/21 08:28:06;;;;;;;18.63;18.03;;;18.30;29.50;;;;;;4992636;28;20444;-86
2022/05/21 08:30:32;;;;;;;17.90;17.27;;;18.30;29.10;;;;;;4991813;28;20984;-86
2022/05/21 08:33:04;;;;;;;18.33;17.63;;;18.40;28.90;;;;;;4990406;28;20178;-85
2022/05/21 08:35:30;;;;;;;18.90;18.10;;;18.20;29.10;;;;;;4991166;28;20917;-86
2022/05/21 08:37:56;;;;;;;19.07;18.20;;;18.30;29.90;;;;;;4991851;28;20654;-85
2022/05/21 08:40:27;;;;;;;18.70;17.90;;;18.30;29.70;;;;;;4990982;28;20516;-84
2022/05/21 08:43:00;;;;;;;18.30;17.70;;;18.50;29.40;;;;;;4991712;28;20185;-85
2022/05/21 08:46:08;;;;;;;18.00;17.30;;;18.30;29.70;;;;;;5008171;28;20425;-84
2022/05/21 08:48:35;;;;;;;17.60;17.00;;;18.50;28.90;;;;;;4993789;28;20816;-84
2022/05/21 08:51:17;;;;;;;18.03;17.43;;;18.60;28.80;;;;;;5008493;28;20440;-85
2022/05/21 08:53:49;;;;;;;18.50;17.80;;;18.60;28.00;;;;;;5009505;28;20921;-86
2022/05/21 08:56:14;;;;;;;18.90;18.20;;;18.60;28.00;;;;;;5008926;28;20409;-86
2022/05/21 08:58:48;;;;;;;19.00;18.30;;;18.50;29.00;;;;;;5009304;28;20425;-87
2022/05/21 09:01:18;;;;;;;18.73;18.03;;;18.60;28.30;;;;;;5009113;28;20639;-87
2022/05/21 09:03:44;;;;;;;17.67;17.07;;;18.50;29.00;;;;;;5007410;28;20432;-87
2022/05/21 09:06:19;;;;;;;18.23;17.53;;;18.60;28.80;;;;;;5007489;28;20425;-86
2022/05/21 09:09:06;;;;;;;17.63;17.03;;;18.60;28.40;;;;;;4991032;28;20472;-87
2022/05/21 09:11:56;;;;;;;17.03;16.43;;;18.70;29.10;;;;;;4990668;28;20832;-88
2022/05/21 09:14:32;;;;;;;18.00;17.40;;;18.80;28.60;;;;;;5006874;28;20418;-87
2022/05/21 09:16:58;;;;;;;17.90;17.30;;;18.90;28.30;;;;;;5007145;28;20422;-87
2022/05/21 09:19:27;;;;;;;18.00;17.40;;;19.10;27.90;;;;;;5007514;28;20484;-85
2022/05/21 09:22:00;;;;;;;18.30;17.70;;;19.00;28.00;;;;;;5007542;28;20417;-86
2022/05/21 09:24:48;;;;;;;18.10;17.50;;;19.00;28.60;;;;;;5006325;28;20421;-86
2022/05/21 09:27:35;;;;;;;18.20;17.60;;;19.20;27.50;;;;;;4992879;28;20437;-85
2022/05/21 09:30:23;;;;;;;19.13;18.50;;;19.00;27.00;;;;;;4984539;28;20460;-85
2022/05/21 09:32:52;;;;;;;18.57;17.87;;;18.90;29.10;;;;;;4991425;28;20406;-87
2022/05/21 09:35:26;;;;;;;19.13;18.43;;;19.00;28.70;;;;;;5007870;28;20421;-88
2022/05/21 09:37:53;;;;;;;18.40;17.80;;;19.10;28.50;;;;;;5007348;28;20424;-87
2022/05/21 09:40:38;;;;;;;18.47;17.70;;;19.10;28.60;;;;;;5005833;28;20555;-80
2022/05/21 09:46:26;;;;;;;18.33;17.50;;;19.20;27.90;;;;;;4991695;28;20428;-82
2022/05/21 09:48:54;;;;;;;22.43;21.00;;;19.20;27.90;;;;;;5007227;28;20504;-82
2022/05/21 09:51:31;;;;;;;18.60;17.90;;;19.10;29.40;;;;;;5006564;28;20784;-82
2022/05/21 09:53:59;;;;;;;19.07;18.37;;;19.20;28.70;;;;;;5006262;28;20417;-82
2022/05/21 09:56:33;;;;;;;19.40;18.70;;;19.40;28.00;;;;;;5005344;28;20412;-82
2022/05/21 09:59:11;;;;;;;19.57;18.87;;;19.40;28.40;;;;;;5006986;28;20177;-82
2022/05/21 10:01:44;;;;;;;19.80;18.87;;;19.30;28.30;;;;;;4992699;28;20479;-79
2022/05/21 10:04:23;;;;;;;19.27;18.57;;;19.30;28.40;;;;;;5005386;28;20930;-79
2022/05/21 10:06:59;;;;;;;17.83;17.13;;;19.50;28.00;;;;;;4996429;28;20436;-82
2022/05/21 10:12:27;;;;;;;18.00;17.30;;;19.20;29.40;;;;;;4995744;28;20409;-79
2022/05/21 10:15:08;;;;;;;17.93;17.23;;;19.30;29.50;;;;;;5010679;28;20409;-80
2022/05/21 10:17:39;;;;;;;17.80;17.10;;;19.40;29.10;;;;;;5010277;28;20421;-82
2022/05/21 10:20:10;;;;;;;19.07;18.20;;;19.50;28.80;;;;;;5010179;28;20479;-81
2022/05/21 10:23:02;;;;;;;18.60;17.80;;;19.50;29.00;;;;;;5010789;28;20763;-84
2022/05/21 10:25:50;;;;;;;17.97;17.17;;;19.70;29.00;;;;;;5010386;28;20433;-81
2022/05/21 10:28:35;;;;;;;17.50;16.87;;;19.60;28.30;;;;;;4991281;28;20917;-79
2022/05/21 10:31:26;;;;;;;17.53;16.80;;;19.80;28.50;;;;;;4995027;28;20417;-80
2022/05/21 10:33:55;;;;;;;17.90;17.30;;;19.80;28.10;;;;;;4994458;28;20425;-81
2022/05/21 10:36:39;;;;;;;17.20;16.70;;;19.80;27.90;;;;;;4993159;28;20429;-82
2022/05/21 10:39:32;;;;;;;17.90;17.20;;;19.80;28.80;;;;;;4993984;28;20913;-82
2022/05/21 10:42:20;;;;;;;18.50;17.80;;;19.90;28.00;;;;;;4994460;28;20413;-84
2022/05/21 10:44:52;;;;;;;18.20;17.60;;;19.80;28.80;;;;;;4993823;28;20827;-81
2022/05/21 10:47:26;;;;;;;18.30;17.60;;;19.90;28.10;;;;;;4994515;28;20797;-81
2022/05/21 10:50:31;;;;;;;18.90;18.20;;;20.00;28.40;;;;;;4971713;28;20568;-81
2022/05/21 10:53:12;;;;;;;17.17;16.57;;;19.90;28.00;;;;;;5002082;28;20428;-83
2022/05/21 10:55:59;;;;;;;17.40;16.70;;;19.90;28.70;;;;;;4993687;28;20453;-85
2022/05/21 10:58:47;;;;;;;17.97;17.10;;;20.00;27.90;;;;;;4994175;28;20460;-83
2022/05/21 11:01:20;;;;;;;17.00;16.40;;;20.10;27.50;;;;;;4994034;28;20906;-81
2022/05/21 11:04:18;;;;;;;17.57;16.97;;;20.10;27.80;;;;;;5009966;28;20409;-85
2022/05/21 11:07:00;;;;;;;18.37;17.73;;;20.20;27.70;;;;;;5010208;28;20796;-86
2022/05/21 11:09:33;;;;;;;17.73;17.13;;;20.40;27.30;;;;;;4993949;28;20460;-86
2022/05/21 11:12:08;;;;;;;16.77;16.27;;;20.50;27.80;;;;;;5008576;28;20766;-86
2022/05/21 11:14:46;;;;;;;18.00;17.40;;;20.80;27.10;;;;;;5007308;28;21011;-82
2022/05/21 11:17:47;;;;;;;18.10;17.40;;;20.90;27.70;;;;;;5009035;28;20427;-82
2022/05/21 11:20:21;;;;;;;18.50;17.80;;;20.80;26.40;;;;;;5009584;28;20431;-82
2022/05/21 11:23:07;;;;;;;17.97;17.13;;;20.90;26.30;;;;;;5009457;28;20500;-82
2022/05/21 11:25:45;;;;;;;16.80;16.30;;;20.90;27.00;;;;;;5009042;28;20429;-83
2022/05/21 11:28:17;;;;;;;18.30;17.70;;;20.90;26.60;;;;;;5009482;28;20773;-82
2022/05/21 11:30:43;;;;;;;17.70;17.10;;;21.00;26.90;;;;;;4992953;28;21059;-82
2022/05/21 11:38:54;;;;;;;17.83;17.23;;;21.00;25.80;;;;;;4994502;28;20420;-82
2022/05/21 11:41:24;;;;;;;18.43;17.83;;;21.10;25.50;;;;;;5009070;28;20421;-82
2022/05/21 11:44:55;;;;;;;17.50;16.90;;;21.00;25.20;;;;;;5009106;28;20417;-82
2022/05/21 11:46:49;;;;;;;17.70;17.00;;;21.10;26.50;;;;;;4993834;28;20917;-82
2022/05/21 11:50:11;;;;;;;18.07;17.47;;;21.10;25.70;;;;;;5008908;28;20465;-82
2022/05/21 11:52:37;;;;;;;17.70;17.00;;;21.10;25.50;;;;;;4988388;28;20513;-83
2022/05/21 11:55:11;;;;;;;18.70;18.00;;;21.30;26.00;;;;;;4992245;28;20524;-83
2022/05/21 11:57:42;;;;;;;19.23;18.43;;;21.20;24.60;;;;;;4992480;28;20561;-82
2022/05/21 12:00:16;;;;;;;18.40;17.80;;;21.20;24.20;;;;;;5008961;28;20424;-82
2022/05/21 12:02:53;;;;;;;20.63;19.53;;;21.20;24.30;;;;;;4992259;28;20457;-83
2022/05/21 12:05:37;;;;;;;21.37;20.27;;;21.20;25.00;;;;;;4991976;28;20795;-83
2022/05/21 12:08:10;;;;;;;18.60;17.83;;;21.30;24.90;;;;;;4992343;28;20421;-81
2022/05/21 12:11:06;;;;;;;18.63;17.87;;;21.40;25.20;;;;;;4992157;28;20476;-81
2022/05/21 12:13:35;;;;;;;18.60;17.90;;;21.40;24.00;;;;;;4992121;28;20796;-81
2022/05/21 12:16:20;;;;;;;18.63;17.97;;;21.60;24.20;;;;;;4991889;28;20421;-82
2022/05/21 12:18:54;;;;;;;18.83;18.13;;;21.60;24.20;;;;;;4992127;28;20491;-82
2022/05/21 12:21:40;;;;;;;17.67;17.07;;;21.70;23.50;;;;;;5009381;28;20964;-82
2022/05/21 12:24:26;;;;;;;17.90;17.30;;;21.60;22.80;;;;;;4995602;28;20575;-82
2022/05/21 12:27:29;;;;;;;18.20;17.60;;;21.60;24.10;;;;;;4995494;28;20528;-82
2022/05/21 12:29:58;;;;;;;17.77;17.10;;;21.70;23.50;;;;;;5006154;28;20829;-82
2022/05/21 12:32:25;;;;;;;18.00;17.40;;;21.80;23.60;;;;;;5008121;28;20511;-82
2022/05/21 12:35:09;;;;;;;18.13;17.53;;;21.80;22.90;;;;;;5007957;28;20422;-82
2022/05/21 12:37:39;;;;;;;17.60;17.00;;;21.70;22.90;;;;;;4991825;28;20560;-83
2022/05/21 12:40:20;;;;;;;17.33;16.63;;;21.80;23.00;;;;;;5008171;28;20780;-83
2022/05/21 12:42:55;;;;;;;17.10;16.50;;;22.00;22.10;;;;;;4991726;28;20421;-82
2022/05/21 12:45:43;;;;;;;17.70;17.10;;;21.90;22.80;;;;;;5007909;28;20474;-83
2022/05/21 12:48:31;;;;;;;17.70;17.10;;;21.90;23.00;;;;;;5008216;28;20425;-83
2022/05/21 12:51:06;;;;;;;17.43;16.83;;;22.00;22.70;;;;;;4991914;28;20433;-83
2022/05/21 12:53:46;;;;;;;19.10;18.10;;;22.00;22.90;;;;;;5008002;28;20417;-83
2022/05/21 12:56:24;;;;;;;17.87;17.27;;;22.10;21.80;;;;;;5008003;28;20417;-83
2022/05/21 12:59:16;;;;;;;16.20;15.70;;;22.30;21.50;;;;;;4992063;28;20424;-82
2022/05/21 13:01:56;;;;;;;17.63;16.80;;;22.30;21.80;;;;;;5008368;28;20412;-83
2022/05/21 13:04:45;;;;;;;17.10;16.60;;;22.30;20.90;;;;;;4991514;28;20412;-83
2022/05/21 13:07:23;;;;;;;17.30;16.70;;;22.30;21.40;;;;;;5008141;28;20759;-83
2022/05/21 13:09:59;;;;;;;17.00;16.50;;;22.40;20.90;;;;;;4991790;28;20806;-83
2022/05/21 13:12:30;;;;;;;17.53;16.80;;;22.50;21.60;;;;;;4991558;28;20413;-83
2022/05/21 13:14:57;;;;;;;18.93;18.13;;;22.50;21.10;;;;;;5007715;28;20449;-83
2022/05/21 13:17:40;;;;;;;18.40;17.50;;;22.70;20.70;;;;;;5007749;28;20421;-83